Time;durP1;ratioP1;P1;durP2;ratioP2;P2;SDS_P1;SDS_P2;PMS_P1;PMS_P2;Temp;Humidity;BMP_temperature;BMP_pressure;BME280_temperature;BME280_humidity;BME280_pressure;Samples;Min_cycle;Max_cycle;Signal;HPM_P1;HPM_P2
2024/02/05 00:00:01;;;;;;;0.50;0.50;;;10.60;99.90;;;;;;4993513;28;20496;-52
2024/02/05 00:02:26;;;;;;;0.90;0.77;;;10.60;99.90;;;;;;4993204;28;20027;-51
2024/02/05 00:04:52;;;;;;;0.57;0.57;;;10.60;99.90;;;;;;4992673;28;20080;-48
2024/02/05 00:07:18;;;;;;;0.70;0.70;;;10.60;99.90;;;;;;4975759;28;20037;-49
2024/02/05 00:09:43;;;;;;;2.08;0.52;;;10.60;99.90;;;;;;4993299;28;20506;-48
2024/02/05 00:12:09;;;;;;;0.35;0.35;;;10.60;99.90;;;;;;4993194;28;20034;-48
2024/02/05 00:14:34;;;;;;;2.20;0.55;;;10.50;99.90;;;;;;4992931;28;20081;-46
2024/02/05 00:17:00;;;;;;;1.27;0.88;;;10.60;99.90;;;;;;4993547;28;20034;-46
2024/02/05 00:19:25;;;;;;;0.77;0.52;;;10.60;99.90;;;;;;4993285;28;20050;-50
2024/02/05 00:21:51;;;;;;;0.40;0.40;;;10.60;99.90;;;;;;4975775;28;20037;-55
2024/02/05 00:24:17;;;;;;;2.45;0.70;;;10.60;99.90;;;;;;4992694;28;20109;-51
2024/02/05 00:26:43;;;;;;;0.40;0.40;;;10.50;99.90;;;;;;4992994;28;20026;-51
2024/02/05 00:29:09;;;;;;;0.88;0.88;;;10.60;99.90;;;;;;4975201;28;20031;-51
2024/02/05 00:31:35;;;;;;;0.73;0.55;;;10.50;99.90;;;;;;4992905;28;20048;-48
2024/02/05 00:34:00;;;;;;;0.60;0.60;;;10.50;99.90;;;;;;4992659;28;20566;-47
2024/02/05 00:36:26;;;;;;;0.40;0.40;;;10.50;99.90;;;;;;4993422;28;20125;-49
2024/02/05 00:38:52;;;;;;;0.63;0.63;;;10.50;99.90;;;;;;4992557;28;20026;-52
2024/02/05 00:41:18;;;;;;;1.27;0.93;;;10.50;99.90;;;;;;4975142;28;20023;-53
2024/02/05 00:43:43;;;;;;;0.77;0.77;;;10.50;99.90;;;;;;4992292;28;20042;-50
2024/02/05 00:46:09;;;;;;;0.40;0.38;;;10.50;99.90;;;;;;4992811;28;20499;-50
2024/02/05 00:48:34;;;;;;;0.43;0.43;;;10.50;99.90;;;;;;4992737;28;20081;-51
2024/02/05 00:51:00;;;;;;;0.30;0.30;;;10.50;99.90;;;;;;4992738;28;20054;-48
2024/02/05 00:53:25;;;;;;;0.90;0.45;;;10.50;99.90;;;;;;4992238;28;20462;-48
2024/02/05 00:55:51;;;;;;;1.08;0.50;;;10.40;99.90;;;;;;4975207;28;20097;-51
2024/02/05 00:58:16;;;;;;;0.60;0.60;;;10.50;99.90;;;;;;4974700;28;20027;-46
2024/02/05 01:00:41;;;;;;;1.60;0.30;;;10.50;99.90;;;;;;4975018;28;20033;-47
2024/02/05 01:03:07;;;;;;;0.50;0.30;;;10.50;99.90;;;;;;4992570;28;20066;-47
2024/02/05 01:05:33;;;;;;;0.38;0.38;;;10.50;99.90;;;;;;4974844;28;20030;-48
2024/02/05 01:07:58;;;;;;;0.43;0.40;;;10.50;99.90;;;;;;4992179;28;20036;-52
2024/02/05 01:10:24;;;;;;;0.50;0.50;;;10.50;99.90;;;;;;4992310;28;20037;-46
2024/02/05 01:12:49;;;;;;;0.40;0.40;;;10.50;99.90;;;;;;4991944;28;20026;-50
2024/02/05 01:15:15;;;;;;;0.47;0.47;;;10.50;99.90;;;;;;4991773;28;20027;-49
2024/02/05 01:17:41;;;;;;;0.50;0.50;;;10.50;99.90;;;;;;4974993;28;20076;-47
2024/02/05 01:20:10;;;;;;;0.50;0.50;;;10.50;99.90;;;;;;4992184;28;20395;-47
2024/02/05 01:22:37;;;;;;;0.43;0.43;;;10.50;99.90;;;;;;4992167;28;20030;-53
2024/02/05 01:25:04;;;;;;;0.32;0.32;;;10.50;99.90;;;;;;4991924;28;20039;-49
2024/02/05 01:27:30;;;;;;;0.43;0.43;;;10.50;99.90;;;;;;4991944;28;20093;-50
2024/02/05 01:29:56;;;;;;;0.32;0.32;;;10.50;99.90;;;;;;4992013;28;20492;-48
2024/02/05 01:32:21;;;;;;;0.40;0.40;;;10.50;99.90;;;;;;4992079;28;20046;-52
2024/02/05 01:34:47;;;;;;;1.40;0.45;;;10.40;99.90;;;;;;4992087;28;20026;-48
2024/02/05 01:37:13;;;;;;;0.60;0.60;;;10.40;99.90;;;;;;4991971;28;20022;-52
2024/02/05 01:39:38;;;;;;;0.30;0.30;;;10.40;99.90;;;;;;4992084;28;20106;-49
2024/02/05 01:42:04;;;;;;;3.30;0.40;;;10.40;99.90;;;;;;4974668;28;20033;-51
2024/02/05 01:44:29;;;;;;;0.40;0.40;;;10.40;99.90;;;;;;4992142;28;20508;-49
2024/02/05 01:46:56;;;;;;;0.30;0.30;;;10.40;99.90;;;;;;4992223;28;20037;-48
2024/02/05 01:49:23;;;;;;;1.92;0.45;;;10.40;99.90;;;;;;4992121;28;20037;-48
2024/02/05 01:51:52;;;;;;;0.40;0.40;;;10.40;99.90;;;;;;4992532;28;20030;-51
2024/02/05 01:54:18;;;;;;;0.30;0.30;;;10.40;99.90;;;;;;4991878;28;20109;-52
2024/02/05 01:56:45;;;;;;;0.40;0.40;;;10.40;99.90;;;;;;4992316;28;20097;-50
2024/02/05 01:59:12;;;;;;;0.20;0.20;;;10.40;99.90;;;;;;4992587;28;20094;-48
2024/02/05 02:01:38;;;;;;;0.40;0.40;;;10.40;99.90;;;;;;4974325;28;20158;-47
2024/02/05 02:04:05;;;;;;;1.08;0.47;;;10.40;99.90;;;;;;4991653;28;20058;-52
2024/02/05 02:06:32;;;;;;;0.35;0.25;;;10.50;99.90;;;;;;4992142;28;20077;-53
2024/02/05 02:08:58;;;;;;;0.40;0.40;;;10.50;99.90;;;;;;4991672;28;20105;-49
2024/02/05 02:11:23;;;;;;;0.50;0.50;;;10.40;99.90;;;;;;4991729;28;20105;-47
2024/02/05 02:13:50;;;;;;;0.40;0.40;;;10.40;99.90;;;;;;4991656;28;20377;-48
2024/02/05 02:16:25;;;;;;;0.60;0.60;;;10.40;99.90;;;;;;4974212;28;20042;-50
2024/02/05 02:18:51;;;;;;;0.45;0.45;;;10.40;99.90;;;;;;4992002;28;20096;-47
2024/02/05 02:21:20;;;;;;;0.63;0.60;;;10.40;99.90;;;;;;4991562;28;20084;-49
2024/02/05 02:23:47;;;;;;;0.45;0.45;;;10.40;99.90;;;;;;4973875;28;20018;-46
2024/02/05 02:26:12;;;;;;;0.50;0.50;;;10.40;99.90;;;;;;4994583;28;20030;-49
2024/02/05 02:28:38;;;;;;;0.38;0.38;;;10.40;99.90;;;;;;5014997;23;20050;-42
2024/02/05 02:31:04;;;;;;;1.05;0.40;;;10.40;99.90;;;;;;4995207;28;20411;-42
2024/02/05 02:33:32;;;;;;;1.63;0.77;;;10.40;99.90;;;;;;4986715;28;20055;-41
2024/02/05 02:39:25;;;;;;;0.30;0.30;;;10.40;99.90;;;;;;4962847;28;20033;-42
2024/02/05 02:41:54;;;;;;;1.95;0.60;;;10.40;99.90;;;;;;4956029;29;20024;-45
2024/02/05 02:44:20;;;;;;;0.40;0.40;;;10.40;99.90;;;;;;4955865;29;20035;-40
2024/02/05 02:46:46;;;;;;;0.45;0.45;;;10.40;99.90;;;;;;4955993;29;20393;-41
2024/02/05 02:49:12;;;;;;;2.22;0.52;;;10.40;99.90;;;;;;4955950;28;20027;-43
2024/02/05 02:51:37;;;;;;;0.40;0.40;;;10.40;99.90;;;;;;4957251;29;20070;-41
2024/02/05 02:54:03;;;;;;;0.63;0.30;;;10.40;99.90;;;;;;4957318;29;20485;-40
2024/02/05 02:56:29;;;;;;;1.00;0.50;;;10.40;99.90;;;;;;4956538;29;20077;-42
2024/02/05 02:58:55;;;;;;;0.65;0.30;;;10.40;99.90;;;;;;4955893;28;20031;-44
2024/02/05 03:01:21;;;;;;;0.50;0.50;;;10.40;99.90;;;;;;4955795;29;20122;-42
2024/02/05 03:03:47;;;;;;;0.43;0.40;;;10.40;99.90;;;;;;4955592;29;20063;-42
2024/02/05 03:06:13;;;;;;;1.35;0.40;;;10.40;99.90;;;;;;4955758;29;20027;-44
2024/02/05 03:08:39;;;;;;;0.93;0.93;;;10.40;99.90;;;;;;4955603;28;20042;-41
2024/02/05 03:11:05;;;;;;;2.53;0.55;;;10.40;99.90;;;;;;4938511;29;20110;-42
2024/02/05 03:13:30;;;;;;;0.90;0.55;;;10.30;99.90;;;;;;4955932;29;20041;-41
2024/02/05 03:15:56;;;;;;;2.92;0.85;;;10.30;99.90;;;;;;4955939;29;20023;-41
2024/02/05 03:18:22;;;;;;;2.38;0.60;;;10.30;99.90;;;;;;4955461;28;20024;-46
2024/02/05 03:20:47;;;;;;;1.48;0.55;;;10.30;99.90;;;;;;4955363;29;20353;-46
2024/02/05 03:23:13;;;;;;;0.52;0.52;;;10.30;99.90;;;;;;4955186;29;20067;-42
2024/02/05 03:25:39;;;;;;;2.28;0.68;;;10.30;99.90;;;;;;4955378;29;20031;-41
2024/02/05 03:28:05;;;;;;;0.50;0.50;;;10.30;99.90;;;;;;4955244;28;20035;-42
2024/02/05 03:30:31;;;;;;;0.77;0.77;;;10.30;99.90;;;;;;4955095;29;20481;-41
2024/02/05 03:32:58;;;;;;;0.65;0.50;;;10.30;99.90;;;;;;4938001;29;20078;-42
2024/02/05 03:35:23;;;;;;;0.50;0.50;;;10.30;99.90;;;;;;4954983;29;20047;-42
2024/02/05 03:37:49;;;;;;;0.98;0.57;;;10.30;99.90;;;;;;4954494;28;20066;-41
2024/02/05 03:40:15;;;;;;;0.47;0.47;;;10.30;99.90;;;;;;4955073;28;20031;-41
2024/02/05 03:42:41;;;;;;;0.52;0.52;;;10.40;99.90;;;;;;4955010;29;20049;-44
2024/02/05 03:45:07;;;;;;;1.17;0.60;;;10.40;99.90;;;;;;4954904;29;20406;-43
2024/02/05 03:47:33;;;;;;;0.60;0.60;;;10.40;99.90;;;;;;4954920;29;20400;-42
2024/02/05 03:49:59;;;;;;;0.52;0.52;;;10.40;99.90;;;;;;4954952;28;20027;-45
2024/02/05 03:52:24;;;;;;;2.53;0.73;;;10.40;99.90;;;;;;4937450;29;20023;-40
2024/02/05 03:54:50;;;;;;;1.35;0.60;;;10.40;99.90;;;;;;4954772;29;20027;-45
2024/02/05 03:57:15;;;;;;;2.53;0.77;;;10.40;99.90;;;;;;4954900;29;20019;-42
2024/02/05 03:59:41;;;;;;;1.52;0.60;;;10.40;99.90;;;;;;4954714;28;20031;-45
2024/02/05 04:02:07;;;;;;;0.60;0.60;;;10.30;99.90;;;;;;4954746;29;20019;-46
2024/02/05 04:04:32;;;;;;;2.03;0.85;;;10.30;99.90;;;;;;4954323;29;20031;-42
2024/02/05 04:06:58;;;;;;;1.48;0.68;;;10.30;99.90;;;;;;4954672;29;20035;-42
2024/02/05 04:09:24;;;;;;;0.77;0.75;;;10.30;99.90;;;;;;4954359;28;20378;-42
2024/02/05 04:11:50;;;;;;;1.40;0.60;;;10.20;99.90;;;;;;4954520;29;20055;-45
2024/02/05 04:14:15;;;;;;;1.63;0.95;;;10.30;99.90;;;;;;4954201;29;20019;-46
2024/02/05 04:16:41;;;;;;;3.15;0.95;;;10.30;99.90;;;;;;4954462;29;20098;-42
2024/02/05 04:19:06;;;;;;;3.70;0.93;;;10.30;99.90;;;;;;4954906;28;20036;-42
2024/02/05 04:21:32;;;;;;;1.45;1.33;;;10.30;99.90;;;;;;4954783;29;20036;-42
2024/02/05 04:23:57;;;;;;;1.23;0.93;;;10.30;99.90;;;;;;4954824;29;20030;-42
2024/02/05 04:26:23;;;;;;;2.75;1.15;;;10.30;99.90;;;;;;4954902;29;20035;-41
2024/02/05 04:28:49;;;;;;;4.40;1.08;;;10.30;99.90;;;;;;4954519;28;20167;-42
2024/02/05 04:31:17;;;;;;;1.38;0.90;;;10.30;99.90;;;;;;4955013;29;20019;-42
2024/02/05 04:33:43;;;;;;;1.42;0.90;;;10.30;99.90;;;;;;4954352;29;20023;-44
2024/02/05 04:36:13;;;;;;;3.28;0.80;;;10.40;99.90;;;;;;4954571;29;20066;-42
2024/02/05 04:38:42;;;;;;;2.40;0.70;;;10.40;99.90;;;;;;4953857;28;20026;-44
2024/02/05 04:41:10;;;;;;;1.50;1.00;;;10.40;99.90;;;;;;4936815;29;20552;-45
2024/02/05 04:43:37;;;;;;;4.25;1.20;;;10.40;99.90;;;;;;4953996;29;20038;-42
2024/02/05 04:46:04;;;;;;;2.58;1.10;;;10.40;99.90;;;;;;4954313;29;20027;-43
2024/02/05 04:48:29;;;;;;;2.90;0.95;;;10.40;99.90;;;;;;4936527;29;20506;-42
2024/02/05 04:50:55;;;;;;;4.53;1.50;;;10.40;99.90;;;;;;4953757;29;20122;-42
2024/02/05 04:53:20;;;;;;;1.20;1.10;;;10.40;99.90;;;;;;4953539;29;20019;-42
2024/02/05 04:55:46;;;;;;;2.08;1.08;;;10.40;99.90;;;;;;4953679;29;20404;-42
2024/02/05 04:58:11;;;;;;;1.60;1.10;;;10.40;99.90;;;;;;4953699;28;20034;-42
2024/02/05 05:00:37;;;;;;;3.45;1.30;;;10.50;99.90;;;;;;4953667;29;20024;-46
2024/02/05 05:03:03;;;;;;;1.60;1.27;;;10.40;99.90;;;;;;4936456;29;20038;-42
2024/02/05 05:05:29;;;;;;;4.68;1.25;;;10.40;99.90;;;;;;4953520;29;20066;-38
2024/02/05 05:07:54;;;;;;;2.05;1.10;;;10.40;99.90;;;;;;4953498;28;20500;-40
2024/02/05 05:10:20;;;;;;;2.15;1.20;;;10.40;99.90;;;;;;4953387;29;20378;-44
2024/02/05 05:12:45;;;;;;;2.70;1.10;;;10.40;99.90;;;;;;4953641;29;20077;-49
2024/02/05 05:15:18;;;;;;;5.05;1.63;;;10.40;99.90;;;;;;4953449;29;20416;-43
2024/02/05 05:17:44;;;;;;;3.88;1.40;;;10.40;99.90;;;;;;4953293;29;20034;-44
2024/02/05 05:20:12;;;;;;;3.55;2.30;;;10.50;99.90;;;;;;4936158;29;20031;-45
2024/02/05 05:22:37;;;;;;;1.60;1.35;;;10.40;99.90;;;;;;4953305;29;20370;-43
2024/02/05 05:25:04;;;;;;;4.15;2.40;;;10.40;99.90;;;;;;4953124;29;20082;-43
2024/02/05 05:27:30;;;;;;;1.75;1.52;;;10.30;99.90;;;;;;4953302;29;20030;-43
2024/02/05 05:29:56;;;;;;;1.58;1.42;;;10.20;99.90;;;;;;4952996;28;20043;-42
2024/02/05 05:32:21;;;;;;;4.90;1.40;;;10.20;99.90;;;;;;4953208;29;20448;-42
2024/02/05 05:34:47;;;;;;;2.38;1.70;;;10.20;99.90;;;;;;4951732;29;20070;-43
2024/02/05 05:37:12;;;;;;;4.88;1.58;;;10.10;99.90;;;;;;4953272;29;20043;-44
2024/02/05 05:39:38;;;;;;;3.15;1.73;;;10.00;99.90;;;;;;4953042;28;20093;-42
2024/02/05 05:42:04;;;;;;;3.72;1.25;;;10.00;99.90;;;;;;4953101;29;20030;-43
2024/02/05 05:44:29;;;;;;;1.95;1.65;;;10.00;99.90;;;;;;4953732;29;20060;-44
2024/02/05 05:46:57;;;;;;;3.42;1.50;;;10.10;99.90;;;;;;4953334;29;20162;-45
2024/02/05 05:49:22;;;;;;;3.22;1.60;;;10.10;99.90;;;;;;4953080;28;20481;-37
2024/02/05 05:51:48;;;;;;;4.72;1.75;;;10.10;99.90;;;;;;4953154;29;20164;-42
2024/02/05 05:54:13;;;;;;;2.13;1.27;;;10.10;99.90;;;;;;4952679;29;20027;-43
2024/02/05 05:56:39;;;;;;;3.33;1.70;;;10.10;99.90;;;;;;4953109;29;20138;-42
2024/02/05 05:59:04;;;;;;;5.78;2.35;;;10.10;99.90;;;;;;4952944;28;20503;-42
2024/02/05 06:01:35;;;;;;;6.45;1.60;;;10.10;99.90;;;;;;4956448;29;20035;-45
2024/02/05 06:04:00;;;;;;;1.40;1.30;;;10.10;99.90;;;;;;4956620;29;20027;-46
2024/02/05 06:06:26;;;;;;;2.15;1.58;;;10.20;99.90;;;;;;4956720;29;20031;-43
2024/02/05 06:08:51;;;;;;;1.58;1.48;;;10.20;99.90;;;;;;4956612;28;20054;-44
2024/02/05 06:11:17;;;;;;;3.53;1.83;;;10.20;99.90;;;;;;4957318;29;20441;-42
2024/02/05 06:13:42;;;;;;;2.20;1.40;;;10.10;99.90;;;;;;4956959;29;20042;-44
2024/02/05 06:16:08;;;;;;;4.57;2.58;;;10.20;99.90;;;;;;4957246;29;20378;-44
2024/02/05 06:18:34;;;;;;;3.53;1.45;;;10.20;99.90;;;;;;4956423;28;20027;-44
2024/02/05 06:20:59;;;;;;;3.33;2.15;;;10.20;99.90;;;;;;4956410;29;20023;-44
2024/02/05 06:23:25;;;;;;;4.00;1.52;;;10.20;99.90;;;;;;4956040;29;20027;-42
2024/02/05 06:25:51;;;;;;;4.55;1.85;;;10.20;99.90;;;;;;4956449;29;20028;-43
2024/02/05 06:28:17;;;;;;;4.32;1.52;;;10.20;99.90;;;;;;4956336;28;20043;-42
2024/02/05 06:30:49;;;;;;;3.92;1.88;;;10.20;99.90;;;;;;4956378;29;20038;-44
2024/02/05 06:33:15;;;;;;;5.18;1.48;;;10.30;99.90;;;;;;4956158;29;20036;-46
2024/02/05 06:35:40;;;;;;;2.20;1.70;;;10.30;99.90;;;;;;4956115;29;20023;-41
2024/02/05 06:38:06;;;;;;;5.47;1.92;;;10.30;99.90;;;;;;4956122;28;20086;-41
2024/02/05 06:40:31;;;;;;;3.35;1.58;;;10.30;99.90;;;;;;4956279;29;20082;-42
2024/02/05 06:42:58;;;;;;;5.97;2.22;;;10.20;99.90;;;;;;4956041;29;20066;-47
2024/02/05 06:45:23;;;;;;;5.35;1.60;;;10.30;99.90;;;;;;4955844;29;20071;-41
2024/02/05 06:47:50;;;;;;;6.05;1.77;;;10.30;99.90;;;;;;4956115;29;20035;-47
2024/02/05 06:50:16;;;;;;;6.80;3.15;;;10.30;99.90;;;;;;4955737;28;20055;-44
2024/02/05 06:52:41;;;;;;;3.58;1.90;;;10.30;99.90;;;;;;4956060;29;20055;-43
2024/02/05 06:55:07;;;;;;;3.17;1.98;;;10.30;99.90;;;;;;4955753;29;20454;-43
2024/02/05 06:57:34;;;;;;;3.00;1.88;;;10.30;99.90;;;;;;4955915;29;20484;-42
2024/02/05 07:00:00;;;;;;;4.72;2.15;;;10.30;99.90;;;;;;4955866;28;20519;-44
2024/02/05 07:02:25;;;;;;;4.70;2.05;;;10.30;99.90;;;;;;4955754;29;20053;-39
2024/02/05 07:04:51;;;;;;;5.22;2.17;;;10.40;99.90;;;;;;4955619;29;20485;-42
2024/02/05 07:07:16;;;;;;;6.80;2.15;;;10.30;99.90;;;;;;4955650;29;20073;-39
2024/02/05 07:09:42;;;;;;;4.75;2.17;;;10.30;99.90;;;;;;4955401;28;20448;-44
2024/02/05 07:12:07;;;;;;;3.75;1.90;;;10.30;99.90;;;;;;4955065;28;20024;-42
2024/02/05 07:14:33;;;;;;;3.65;2.28;;;10.20;99.90;;;;;;4956127;29;20098;-40
2024/02/05 07:16:59;;;;;;;4.80;2.40;;;10.20;99.90;;;;;;4956167;29;20027;-42
2024/02/05 07:19:25;;;;;;;4.95;2.47;;;10.20;99.90;;;;;;4938638;29;20098;-46
2024/02/05 07:21:50;;;;;;;4.82;2.85;;;10.10;99.90;;;;;;4955996;29;20078;-44
2024/02/05 07:24:16;;;;;;;5.70;3.00;;;10.10;99.90;;;;;;4955311;29;20571;-42
2024/02/05 07:26:42;;;;;;;4.13;2.60;;;10.10;99.90;;;;;;4955221;29;20504;-43
2024/02/05 07:29:07;;;;;;;5.82;2.55;;;10.10;99.90;;;;;;4955275;28;20035;-43
2024/02/05 07:31:33;;;;;;;4.45;3.08;;;10.10;99.90;;;;;;4955413;29;20098;-46
2024/02/05 07:33:58;;;;;;;6.18;3.15;;;10.10;99.90;;;;;;4955744;29;20027;-43
2024/02/05 07:36:26;;;;;;;6.68;2.33;;;10.10;99.90;;;;;;4955445;29;20348;-41
2024/02/05 07:38:51;;;;;;;5.05;3.00;;;10.10;99.90;;;;;;4955281;28;20341;-42
2024/02/05 07:41:17;;;;;;;6.68;2.60;;;10.10;99.90;;;;;;4955171;29;20110;-45
2024/02/05 07:43:42;;;;;;;4.22;2.92;;;10.10;99.90;;;;;;4954756;29;20024;-42
2024/02/05 07:46:08;;;;;;;5.65;3.10;;;10.00;99.90;;;;;;4955200;29;20027;-43
2024/02/05 07:48:35;;;;;;;6.95;3.30;;;10.10;99.90;;;;;;4954840;28;20043;-42
2024/02/05 07:51:03;;;;;;;7.55;3.25;;;10.10;99.90;;;;;;4954856;29;20027;-41
2024/02/05 07:53:29;;;;;;;4.68;2.83;;;10.10;99.90;;;;;;4937761;29;20369;-42
2024/02/05 07:55:55;;;;;;;11.90;3.25;;;10.10;99.90;;;;;;4956091;29;20055;-43
2024/02/05 07:58:21;;;;;;;4.93;2.90;;;10.10;99.90;;;;;;4955131;28;20024;-43
2024/02/05 08:00:47;;;;;;;8.45;3.35;;;10.20;99.90;;;;;;4954702;29;20393;-41
2024/02/05 08:03:13;;;;;;;13.55;5.18;;;10.20;99.90;;;;;;4954306;29;20023;-38
2024/02/05 08:05:39;;;;;;;9.27;4.63;;;10.10;99.90;;;;;;4954668;29;20035;-42
2024/02/05 08:08:04;;;;;;;10.55;3.05;;;10.20;99.90;;;;;;4954479;28;20101;-43
2024/02/05 08:10:30;;;;;;;9.55;3.78;;;10.20;99.90;;;;;;4954522;29;20158;-45
2024/02/05 08:12:55;;;;;;;8.07;3.10;;;10.20;99.90;;;;;;4954173;29;20035;-42
2024/02/05 08:15:21;;;;;;;9.38;3.42;;;10.20;99.90;;;;;;4954360;29;20127;-42
2024/02/05 08:17:47;;;;;;;8.73;3.42;;;10.30;99.90;;;;;;4953180;29;20035;-42
2024/02/05 08:20:13;;;;;;;7.70;3.90;;;10.30;99.90;;;;;;4954236;28;20067;-42
2024/02/05 08:22:39;;;;;;;5.88;3.33;;;10.30;99.90;;;;;;4953879;28;20027;-44
2024/02/05 08:25:06;;;;;;;12.30;3.35;;;10.40;99.90;;;;;;4954383;29;20558;-44
2024/02/05 08:27:32;;;;;;;8.02;3.13;;;10.40;99.90;;;;;;4955917;28;20086;-44
2024/02/05 08:29:57;;;;;;;8.32;3.15;;;10.40;99.90;;;;;;4972013;28;20480;-43
2024/02/05 08:32:23;;;;;;;11.35;3.25;;;10.40;99.90;;;;;;4973331;28;20030;-43
2024/02/05 08:34:49;;;;;;;5.22;2.88;;;10.50;99.90;;;;;;4990580;23;20019;-48
2024/02/05 08:37:14;;;;;;;13.23;3.28;;;10.50;99.90;;;;;;4978863;28;20022;-49
2024/02/05 08:39:40;;;;;;;11.70;3.38;;;10.50;99.90;;;;;;4999362;28;20061;-47
2024/02/05 08:42:05;;;;;;;17.27;4.07;;;10.50;99.90;;;;;;4973941;28;20026;-52
2024/02/05 08:44:31;;;;;;;11.25;3.15;;;10.50;99.90;;;;;;4978870;28;20026;-45
2024/02/05 08:46:56;;;;;;;11.73;4.05;;;10.50;99.90;;;;;;4971764;28;20534;-47
2024/02/05 08:49:22;;;;;;;13.95;3.00;;;10.50;99.90;;;;;;4990156;28;20031;-51
2024/02/05 08:51:47;;;;;;;23.80;4.30;;;10.50;99.90;;;;;;4985634;28;20027;-51
2024/02/05 08:54:13;;;;;;;15.20;4.13;;;10.60;99.90;;;;;;4972982;28;20086;-49
2024/02/05 08:56:39;;;;;;;11.07;3.22;;;10.60;99.90;;;;;;4973446;28;20023;-49
2024/02/05 08:59:05;;;;;;;13.43;3.05;;;10.70;99.90;;;;;;4985454;28;20505;-49
2024/02/05 09:01:31;;;;;;;8.52;3.28;;;10.70;99.90;;;;;;4990873;28;20109;-50
2024/02/05 09:03:57;;;;;;;9.60;3.40;;;10.70;99.90;;;;;;4976859;28;20041;-55
2024/02/05 09:06:22;;;;;;;8.63;3.47;;;10.70;99.90;;;;;;4980313;28;20034;-54
2024/02/05 09:08:48;;;;;;;14.18;2.85;;;10.70;99.90;;;;;;4978750;28;20031;-50
2024/02/05 09:11:14;;;;;;;12.93;3.75;;;10.70;99.90;;;;;;4989101;28;20280;-50
2024/02/05 09:13:40;;;;;;;11.30;3.25;;;10.70;99.90;;;;;;4983778;28;20057;-47
2024/02/05 09:16:05;;;;;;;11.68;3.42;;;10.70;99.90;;;;;;4989151;28;20026;-49
2024/02/05 09:18:31;;;;;;;18.30;3.67;;;10.70;99.90;;;;;;4988579;28;20452;-57
2024/02/05 09:20:57;;;;;;;14.73;3.60;;;10.80;99.90;;;;;;4976712;28;20053;-52
2024/02/05 09:23:22;;;;;;;10.40;2.60;;;10.80;99.90;;;;;;4983400;28;20064;-51
2024/02/05 09:25:48;;;;;;;8.65;2.67;;;10.90;99.90;;;;;;4992496;28;20023;-51
2024/02/05 09:28:13;;;;;;;8.30;2.97;;;11.00;99.90;;;;;;4980251;28;20018;-58
2024/02/05 09:30:39;;;;;;;10.45;2.88;;;11.00;99.90;;;;;;4992033;28;20039;-61
2024/02/05 09:33:08;;;;;;;9.68;2.88;;;11.00;99.90;;;;;;4992493;28;20456;-59
2024/02/05 09:35:35;;;;;;;11.57;3.53;;;11.00;99.90;;;;;;4991634;28;20041;-56
2024/02/05 09:38:01;;;;;;;12.88;3.33;;;11.00;99.90;;;;;;4992311;28;20372;-60
2024/02/05 09:40:28;;;;;;;18.08;3.20;;;11.10;99.90;;;;;;4990747;28;20030;-58
2024/02/05 09:42:55;;;;;;;11.85;3.00;;;11.10;99.90;;;;;;4982887;28;20511;-54
2024/02/05 09:45:23;;;;;;;14.30;3.85;;;11.10;99.90;;;;;;4987067;28;20105;-52
2024/02/05 09:47:50;;;;;;;11.88;2.88;;;11.10;99.90;;;;;;4989047;28;20112;-55
2024/02/05 09:50:16;;;;;;;16.42;3.85;;;11.10;99.90;;;;;;4972679;28;20019;-50
2024/02/05 09:52:44;;;;;;;12.60;3.80;;;11.10;99.90;;;;;;4972582;28;20513;-60
2024/02/05 09:55:11;;;;;;;12.55;2.88;;;11.20;99.90;;;;;;4955078;28;20037;-60
2024/02/05 09:57:37;;;;;;;10.40;3.38;;;11.10;99.90;;;;;;4983656;28;20019;-58
2024/02/05 10:00:03;;;;;;;13.05;3.10;;;11.10;99.90;;;;;;4984073;28;20109;-58
2024/02/05 10:02:29;;;;;;;12.95;2.80;;;11.10;99.90;;;;;;4985878;28;20027;-59
2024/02/05 10:04:57;;;;;;;18.48;3.05;;;11.10;99.90;;;;;;4974344;28;20472;-60
2024/02/05 10:07:26;;;;;;;12.82;3.63;;;11.10;99.90;;;;;;4991801;28;20395;-60
2024/02/05 10:09:53;;;;;;;10.02;3.63;;;11.20;99.90;;;;;;4992044;28;20096;-60
2024/02/05 10:12:20;;;;;;;11.27;3.53;;;11.10;99.90;;;;;;4983810;28;20037;-55
2024/02/05 10:14:46;;;;;;;7.32;2.70;;;11.30;99.90;;;;;;4979087;28;20404;-54
2024/02/05 10:17:11;;;;;;;13.80;3.53;;;11.30;99.90;;;;;;4981445;28;20032;-53
2024/02/05 10:19:37;;;;;;;11.95;3.97;;;11.30;99.90;;;;;;4990768;28;20166;-61
2024/02/05 10:22:06;;;;;;;8.48;3.38;;;11.40;99.90;;;;;;4976186;28;20031;-54
2024/02/05 10:24:34;;;;;;;13.75;2.40;;;11.50;99.90;;;;;;4972048;28;20034;-52
2024/02/05 10:26:59;;;;;;;7.50;2.95;;;11.50;99.90;;;;;;4972456;28;20487;-54
2024/02/05 10:29:25;;;;;;;13.95;2.97;;;11.60;99.90;;;;;;4971088;28;20038;-57
2024/02/05 10:31:53;;;;;;;6.47;3.15;;;11.60;99.90;;;;;;4972322;28;20030;-50
2024/02/05 10:34:22;;;;;;;13.85;3.47;;;11.60;99.90;;;;;;4986304;28;20022;-48
2024/02/05 10:36:49;;;;;;;10.30;2.95;;;11.80;99.90;;;;;;4980392;28;20030;-60
2024/02/05 10:39:22;;;;;;;18.17;3.10;;;11.90;99.90;;;;;;4990380;28;20031;-57
2024/02/05 10:41:52;;;;;;;8.40;3.30;;;12.00;99.90;;;;;;4990616;28;20400;-57
2024/02/05 10:44:18;;;;;;;17.10;4.22;;;11.90;99.90;;;;;;4991257;28;20399;-56
2024/02/05 10:46:45;;;;;;;8.18;2.25;;;11.90;99.90;;;;;;4993828;28;20026;-57
2024/02/05 10:49:11;;;;;;;15.23;3.40;;;12.10;99.90;;;;;;4994048;28;20030;-57
2024/02/05 10:51:39;;;;;;;6.75;2.17;;;12.10;99.90;;;;;;4992544;28;20026;-56
2024/02/05 10:54:05;;;;;;;5.88;2.92;;;12.00;99.90;;;;;;4972764;28;20026;-59
2024/02/05 10:56:31;;;;;;;14.10;4.10;;;12.10;99.90;;;;;;4993427;28;20492;-59
2024/02/05 10:58:59;;;;;;;10.38;3.35;;;12.10;99.90;;;;;;4993448;28;20032;-56
2024/02/05 11:01:30;;;;;;;11.48;3.38;;;12.40;99.90;;;;;;4994825;28;20080;-57
2024/02/05 11:04:01;;;;;;;10.98;2.80;;;12.50;99.90;;;;;;4991912;28;20019;-57
2024/02/05 11:06:33;;;;;;;17.38;2.28;;;12.70;99.90;;;;;;4978958;28;20027;-59
2024/02/05 11:09:01;;;;;;;6.85;2.72;;;12.80;99.90;;;;;;4983634;28;20396;-59
2024/02/05 11:11:27;;;;;;;6.68;2.42;;;13.00;99.90;;;;;;4983327;28;20444;-59
2024/02/05 11:13:56;;;;;;;5.93;2.30;;;13.10;99.90;;;;;;4978296;28;20027;-59
2024/02/05 11:16:24;;;;;;;17.02;3.40;;;13.20;99.90;;;;;;4974385;28;20027;-58
2024/02/05 11:18:54;;;;;;;9.57;3.10;;;13.30;99.90;;;;;;4975041;28;20046;-58
2024/02/05 11:21:30;;;;;;;7.00;2.85;;;13.10;99.90;;;;;;4975267;28;20015;-56
2024/02/05 11:23:57;;;;;;;15.60;6.75;;;13.00;99.90;;;;;;4975606;28;20436;-52
2024/02/05 11:26:24;;;;;;;32.08;16.73;;;12.90;99.90;;;;;;4981523;28;20104;-50
2024/02/05 11:28:51;;;;;;;17.23;3.42;;;12.70;99.90;;;;;;4978577;28;20023;-52
2024/02/05 11:31:17;;;;;;;6.25;3.70;;;12.50;99.90;;;;;;4976671;28;20085;-49
2024/02/05 11:33:44;;;;;;;9.43;3.13;;;12.30;99.90;;;;;;4993915;28;20105;-51
2024/02/05 11:36:12;;;;;;;16.77;4.03;;;12.20;99.90;;;;;;4990766;28;20415;-54
2024/02/05 11:38:41;;;;;;;7.68;2.65;;;12.30;99.90;;;;;;4994371;28;20385;-53
2024/02/05 11:41:07;;;;;;;12.82;3.63;;;12.40;99.90;;;;;;4980570;28;20027;-49
2024/02/05 11:43:33;;;;;;;16.92;3.53;;;12.50;99.90;;;;;;4981135;28;20056;-49
2024/02/05 11:45:58;;;;;;;14.93;3.75;;;12.50;99.90;;;;;;4994180;28;20030;-51
2024/02/05 11:48:24;;;;;;;12.00;3.22;;;12.50;99.90;;;;;;4993151;28;20041;-56
2024/02/05 11:50:50;;;;;;;14.50;3.70;;;12.50;99.90;;;;;;4997280;28;20070;-52
2024/02/05 11:53:17;;;;;;;14.85;3.20;;;12.50;99.90;;;;;;4996413;28;20073;-53
2024/02/05 11:55:44;;;;;;;10.60;2.78;;;12.40;99.90;;;;;;4988461;28;20031;-53
2024/02/05 11:58:11;;;;;;;10.77;3.03;;;12.40;99.90;;;;;;4993728;28;20068;-52
2024/02/05 12:00:37;;;;;;;11.57;3.42;;;12.40;99.90;;;;;;4989471;28;20030;-50
2024/02/05 12:03:05;;;;;;;11.93;3.40;;;12.30;99.90;;;;;;4990379;28;20031;-50
2024/02/05 12:05:31;;;;;;;8.60;3.30;;;12.30;99.90;;;;;;4973345;28;20112;-49
2024/02/05 12:08:00;;;;;;;10.90;3.75;;;12.20;99.90;;;;;;4973299;28;20038;-53
2024/02/05 12:10:25;;;;;;;12.52;2.95;;;12.20;99.90;;;;;;4973938;28;20035;-52
2024/02/05 12:12:51;;;;;;;11.43;3.35;;;12.10;99.90;;;;;;4974013;28;20023;-54
2024/02/05 12:15:22;;;;;;;8.98;3.20;;;12.00;99.90;;;;;;4972371;28;20030;-51
2024/02/05 12:17:48;;;;;;;15.77;3.85;;;11.90;99.90;;;;;;4974010;28;20034;-55
2024/02/05 12:20:21;;;;;;;21.83;5.07;;;11.90;99.90;;;;;;4955363;28;20026;-53
2024/02/05 12:22:48;;;;;;;15.30;3.63;;;11.90;99.90;;;;;;4973599;28;20023;-50
2024/02/05 12:25:15;;;;;;;18.88;4.50;;;11.90;99.90;;;;;;4971033;28;20073;-53
2024/02/05 12:27:42;;;;;;;12.65;3.70;;;12.00;99.90;;;;;;4971917;28;20514;-52
2024/02/05 12:30:08;;;;;;;11.27;3.00;;;12.10;99.90;;;;;;4973393;28;20033;-54
2024/02/05 12:32:34;;;;;;;13.93;3.30;;;12.20;99.90;;;;;;4970565;28;20058;-52
2024/02/05 12:35:00;;;;;;;9.82;3.97;;;12.30;99.90;;;;;;4976347;28;20471;-52
2024/02/05 12:37:26;;;;;;;8.60;3.70;;;12.20;99.90;;;;;;4973192;28;20027;-54
2024/02/05 12:39:53;;;;;;;15.75;3.25;;;12.20;99.90;;;;;;4972819;28;20098;-50